Time;durP1;ratioP1;P1;durP2;ratioP2;P2;SDS_P1;SDS_P2;PMS_P1;PMS_P2;Temp;Humidity;BMP_temperature;BMP_pressure;BME280_temperature;BME280_humidity;BME280_pressure;Samples;Min_cycle;Max_cycle;Signal;HPM_P1;HPM_P2
2022/01/04 00:01:00;;;;;;;19.48;2.95;;;;;;;;;;5033871;28;20390;-76
2022/01/04 00:03:27;;;;;;;14.48;2.53;;;;;;;;;;5033982;28;20467;-76
2022/01/04 00:05:53;;;;;;;12.30;2.35;;;;;;;;;;5033778;28;20049;-76
2022/01/04 00:08:20;;;;;;;10.52;2.00;;;;;;;;;;5033720;28;20567;-76
2022/01/04 00:10:47;;;;;;;14.00;2.80;;;;;;;;;;5032540;28;20049;-76
2022/01/04 00:13:25;;;;;;;16.77;2.50;;;;;;;;;;5033749;28;20045;-76
2022/01/04 00:15:55;;;;;;;16.95;2.38;;;;;;;;;;5033667;28;20128;-76
2022/01/04 00:18:22;;;;;;;11.88;2.20;;;;;;;;;;5032356;28;20045;-76
2022/01/04 00:20:49;;;;;;;13.98;3.17;;;;;;;;;;5033578;28;20045;-75
2022/01/04 00:23:16;;;;;;;14.63;2.83;;;;;;;;;;5033752;28;20053;-75
2022/01/04 00:25:43;;;;;;;19.27;2.57;;;;;;;;;;5032372;28;20095;-75
2022/01/04 00:28:10;;;;;;;16.87;3.13;;;;;;;;;;5019556;28;20369;-75
2022/01/04 00:30:37;;;;;;;21.83;3.35;;;;;;;;;;5033982;28;20049;-75
2022/01/04 00:33:05;;;;;;;13.25;2.78;;;;;;;;;;5033293;28;20060;-75
2022/01/04 00:35:31;;;;;;;10.85;2.15;;;;;;;;;;5032365;28;20053;-75
2022/01/04 00:37:58;;;;;;;14.18;2.58;;;;;;;;;;5033239;28;20095;-75
2022/01/04 00:40:25;;;;;;;13.73;2.67;;;;;;;;;;5033765;28;20049;-75
2022/01/04 00:42:52;;;;;;;16.50;2.70;;;;;;;;;;5032202;28;20049;-76
2022/01/04 00:45:19;;;;;;;15.05;2.97;;;;;;;;;;5031954;28;20065;-76
2022/01/04 00:49:09;;;;;;;14.07;2.15;;;;;;;;;;5033203;28;20049;-76
2022/01/04 00:50:33;;;;;;;17.02;2.63;;;;;;;;;;5032768;28;20497;-76
2022/01/04 00:53:00;;;;;;;16.42;2.80;;;;;;;;;;5032820;28;20060;-76
2022/01/04 00:55:27;;;;;;;13.82;2.95;;;;;;;;;;5033006;28;20049;-76
2022/01/04 00:57:54;;;;;;;15.50;2.80;;;;;;;;;;5031600;28;20485;-76
2022/01/04 01:00:20;;;;;;;10.40;2.47;;;;;;;;;;5032684;28;20049;-76
2022/01/04 01:02:47;;;;;;;18.65;2.88;;;;;;;;;;5032662;28;20057;-76
2022/01/04 01:05:15;;;;;;;10.10;2.08;;;;;;;;;;5032818;28;20567;-75
2022/01/04 01:07:41;;;;;;;14.27;2.47;;;;;;;;;;5031790;28;20045;-75
2022/01/04 01:12:38;;;;;;;16.20;2.47;;;;;;;;;;5032606;28;20045;-75
2022/01/04 01:15:05;;;;;;;13.23;2.22;;;;;;;;;;5032727;28;20053;-75
2022/01/04 01:17:32;;;;;;;13.77;2.20;;;;;;;;;;5032754;28;20103;-75
2022/01/04 01:19:59;;;;;;;14.27;1.67;;;;;;;;;;5032367;28;20480;-76
2022/01/04 01:22:25;;;;;;;13.30;2.92;;;;;;;;;;5031377;28;20400;-76
2022/01/04 01:24:52;;;;;;;16.23;2.50;;;;;;;;;;5032455;28;20053;-76
2022/01/04 01:27:18;;;;;;;12.32;2.50;;;;;;;;;;5032381;28;20305;-76
2022/01/04 01:29:45;;;;;;;14.65;2.25;;;;;;;;;;5031290;28;20113;-76
2022/01/04 01:32:11;;;;;;;12.30;2.38;;;;;;;;;;5032046;28;20122;-76
2022/01/04 01:34:37;;;;;;;14.57;2.53;;;;;;;;;;5032224;28;20049;-76
2022/01/04 01:37:04;;;;;;;10.57;1.92;;;;;;;;;;5032514;28;20050;-76
2022/01/04 01:39:30;;;;;;;12.32;2.00;;;;;;;;;;5032419;28;20087;-76
2022/01/04 01:41:57;;;;;;;6.30;1.50;;;;;;;;;;5032056;28;20053;-76
2022/01/04 01:44:24;;;;;;;15.02;2.13;;;;;;;;;;5032273;28;20456;-76
2022/01/04 01:46:50;;;;;;;10.15;1.95;;;;;;;;;;5032270;28;20453;-76
2022/01/04 01:49:17;;;;;;;13.57;2.42;;;;;;;;;;5032094;28;20053;-76
2022/01/04 01:51:44;;;;;;;12.73;2.60;;;;;;;;;;5031870;28;20054;-76
2022/01/04 01:54:10;;;;;;;13.05;2.22;;;;;;;;;;5031882;28;20099;-76
2022/01/04 01:56:37;;;;;;;10.48;1.85;;;;;;;;;;5030949;28;20046;-76
2022/01/04 01:59:03;;;;;;;12.60;1.77;;;;;;;;;;5032109;28;20045;-76
2022/01/04 02:01:30;;;;;;;12.68;2.00;;;;;;;;;;5031282;28;20053;-76
2022/01/04 02:03:56;;;;;;;18.23;2.60;;;;;;;;;;5031555;28;20053;-76
2022/01/04 02:06:23;;;;;;;12.00;2.17;;;;;;;;;;5031789;28;20073;-76
2022/01/04 02:08:50;;;;;;;14.48;2.80;;;;;;;;;;5030413;28;20180;-76
2022/01/04 02:11:18;;;;;;;16.63;2.35;;;;;;;;;;5032237;28;20053;-75
2022/01/04 02:13:44;;;;;;;17.10;2.85;;;;;;;;;;5031553;28;20053;-76
2022/01/04 02:16:11;;;;;;;18.75;2.50;;;;;;;;;;5031965;28;20046;-76
2022/01/04 02:18:38;;;;;;;12.83;2.50;;;;;;;;;;5018023;28;20107;-75
2022/01/04 02:21:04;;;;;;;15.05;2.15;;;;;;;;;;5031548;28;20053;-76
2022/01/04 02:23:33;;;;;;;11.85;2.70;;;;;;;;;;5031448;28;20053;-76
2022/01/04 02:26:01;;;;;;;10.20;2.67;;;;;;;;;;5031794;28;20053;-76
2022/01/04 02:28:28;;;;;;;18.55;3.00;;;;;;;;;;5031540;28;20111;-75
2022/01/04 02:30:54;;;;;;;14.27;3.90;;;;;;;;;;5031732;28;20041;-76
2022/01/04 02:33:21;;;;;;;13.80;2.38;;;;;;;;;;5030226;28;20124;-76
2022/01/04 02:35:47;;;;;;;12.95;2.33;;;;;;;;;;5031659;28;20049;-76
2022/01/04 02:38:14;;;;;;;15.40;2.38;;;;;;;;;;5031339;28;20424;-76
2022/01/04 02:40:40;;;;;;;13.82;2.90;;;;;;;;;;5031494;28;20049;-76
2022/01/04 02:43:07;;;;;;;16.13;2.20;;;;;;;;;;5031554;28;20115;-76
2022/01/04 02:45:33;;;;;;;16.08;2.67;;;;;;;;;;5031465;28;20103;-76
2022/01/04 02:48:00;;;;;;;12.90;1.73;;;;;;;;;;5031275;28;20049;-76
2022/01/04 02:50:26;;;;;;;17.58;2.50;;;;;;;;;;5031549;28;20076;-76
2022/01/04 02:52:53;;;;;;;12.50;2.58;;;;;;;;;;5030128;28;20096;-76
2022/01/04 02:55:19;;;;;;;16.58;2.10;;;;;;;;;;5031218;28;20053;-76
2022/01/04 02:57:46;;;;;;;9.43;2.00;;;;;;;;;;5030127;28;20046;-76
2022/01/04 03:00:14;;;;;;;14.45;2.20;;;;;;;;;;5030017;28;20076;-76
2022/01/04 03:02:41;;;;;;;12.38;1.90;;;;;;;;;;5029718;28;20398;-75
2022/01/04 03:05:08;;;;;;;15.57;2.47;;;;;;;;;;5030014;28;20128;-76
2022/01/04 03:07:35;;;;;;;12.05;1.95;;;;;;;;;;5031466;28;20105;-76
2022/01/04 03:10:03;;;;;;;10.50;2.53;;;;;;;;;;5031362;28;20050;-75
2022/01/04 03:12:30;;;;;;;26.83;3.03;;;;;;;;;;5031003;28;20046;-76
2022/01/04 03:14:56;;;;;;;12.27;2.42;;;;;;;;;;5033305;28;20373;-75
2022/01/04 03:17:23;;;;;;;10.57;2.10;;;;;;;;;;5034861;28;20099;-76
2022/01/04 03:19:49;;;;;;;17.60;1.95;;;;;;;;;;5034657;28;20053;-76
2022/01/04 03:22:16;;;;;;;17.13;2.40;;;;;;;;;;5034722;28;20095;-76
2022/01/04 03:24:42;;;;;;;14.07;1.98;;;;;;;;;;5034755;28;20087;-76
2022/01/04 03:27:08;;;;;;;14.77;1.90;;;;;;;;;;5034918;28;20131;-76
2022/01/04 03:29:35;;;;;;;11.48;2.10;;;;;;;;;;5027098;28;20045;-76
2022/01/04 03:32:02;;;;;;;12.05;2.20;;;;;;;;;;5034574;28;20042;-76
2022/01/04 03:34:28;;;;;;;9.55;1.40;;;;;;;;;;5034336;28;20417;-76
2022/01/04 03:36:55;;;;;;;9.13;1.33;;;;;;;;;;5034390;28;20058;-76
2022/01/04 03:39:21;;;;;;;13.07;2.40;;;;;;;;;;5034337;28;20401;-76
2022/01/04 03:41:48;;;;;;;11.05;1.90;;;;;;;;;;5034503;28;20045;-76
2022/01/04 03:44:18;;;;;;;11.45;1.50;;;;;;;;;;5034303;28;20049;-76
2022/01/04 03:46:48;;;;;;;8.95;1.85;;;;;;;;;;5034417;28;20405;-76
2022/01/04 03:49:15;;;;;;;16.05;2.58;;;;;;;;;;5034505;28;20111;-76
2022/01/04 03:51:41;;;;;;;16.13;2.33;;;;;;;;;;5034389;28;20095;-76
2022/01/04 03:54:08;;;;;;;9.77;1.75;;;;;;;;;;5034380;28;20045;-76
2022/01/04 03:56:34;;;;;;;11.82;1.88;;;;;;;;;;5033983;28;20482;-76
2022/01/04 03:59:01;;;;;;;8.35;1.60;;;;;;;;;;5034338;28;20119;-76
2022/01/04 04:01:27;;;;;;;11.57;1.63;;;;;;;;;;5033904;28;20087;-76
2022/01/04 04:03:54;;;;;;;13.38;1.92;;;;;;;;;;5033860;28;20049;-76
2022/01/04 04:06:20;;;;;;;9.35;1.40;;;;;;;;;;5034096;28;20115;-75
2022/01/04 04:08:47;;;;;;;12.23;1.92;;;;;;;;;;5033814;28;20049;-75
2022/01/04 04:11:13;;;;;;;9.18;1.80;;;;;;;;;;5033821;28;20085;-75
2022/01/04 04:13:40;;;;;;;12.60;2.13;;;;;;;;;;5033870;28;20061;-75
2022/01/04 04:16:06;;;;;;;8.55;1.25;;;;;;;;;;5032441;28;20057;-75
2022/01/04 04:18:33;;;;;;;12.13;1.67;;;;;;;;;;5033868;28;20072;-75
2022/01/04 04:20:59;;;;;;;12.63;1.80;;;;;;;;;;5033738;28;20095;-75
2022/01/04 04:23:26;;;;;;;7.35;1.20;;;;;;;;;;5033586;28;20061;-75
2022/01/04 04:25:52;;;;;;;11.43;1.67;;;;;;;;;;5033140;28;20049;-75
2022/01/04 04:28:19;;;;;;;12.23;2.08;;;;;;;;;;5033520;28;20053;-75
2022/01/04 04:30:45;;;;;;;13.90;1.52;;;;;;;;;;5033594;28;20459;-74
2022/01/04 04:33:12;;;;;;;5.57;0.90;;;;;;;;;;5032096;28;20045;-75
2022/01/04 04:35:38;;;;;;;8.55;1.33;;;;;;;;;;5033460;28;20045;-75
2022/01/04 04:38:06;;;;;;;7.88;1.63;;;;;;;;;;5033487;28;20390;-75
2022/01/04 04:40:33;;;;;;;13.98;1.63;;;;;;;;;;5032077;28;20057;-75
2022/01/04 04:43:00;;;;;;;10.43;2.60;;;;;;;;;;5033405;28;20045;-75
2022/01/04 04:45:26;;;;;;;7.15;1.40;;;;;;;;;;5033396;28;20053;-75
2022/01/04 04:47:53;;;;;;;7.80;2.05;;;;;;;;;;5033527;28;20049;-75
2022/01/04 04:50:19;;;;;;;11.35;1.70;;;;;;;;;;5033200;28;20091;-75
2022/01/04 04:52:46;;;;;;;12.07;2.30;;;;;;;;;;5033160;28;20041;-75
2022/01/04 04:55:13;;;;;;;8.80;1.73;;;;;;;;;;5033070;28;20399;-75
2022/01/04 04:57:39;;;;;;;11.68;2.28;;;;;;;;;;5032909;28;20100;-75
2022/01/04 05:00:07;;;;;;;15.95;2.28;;;;;;;;;;5032808;28;20049;-75
2022/01/04 05:02:34;;;;;;;9.88;2.13;;;;;;;;;;5031404;28;20075;-75
2022/01/04 05:05:01;;;;;;;10.37;1.70;;;;;;;;;;5032947;28;20128;-75
2022/01/04 05:07:27;;;;;;;9.82;1.40;;;;;;;;;;5032879;28;20103;-75
2022/01/04 05:09:54;;;;;;;9.70;1.77;;;;;;;;;;5032721;28;20045;-75
2022/01/04 05:12:20;;;;;;;9.60;1.70;;;;;;;;;;5024198;28;20124;-75
2022/01/04 05:14:47;;;;;;;9.82;1.60;;;;;;;;;;5027241;28;20123;-75
2022/01/04 05:17:17;;;;;;;8.80;1.67;;;;;;;;;;5032935;28;20053;-75
2022/01/04 05:19:43;;;;;;;11.18;1.80;;;;;;;;;;5032492;28;20103;-75
2022/01/04 05:22:10;;;;;;;6.03;1.48;;;;;;;;;;5032411;28;20049;-75
2022/01/04 05:24:36;;;;;;;8.48;1.73;;;;;;;;;;5032361;28;20049;-75
2022/01/04 05:27:03;;;;;;;11.50;1.65;;;;;;;;;;5032257;28;20050;-75
2022/01/04 05:29:30;;;;;;;7.60;1.75;;;;;;;;;;5032655;28;20049;-75
2022/01/04 05:31:57;;;;;;;12.60;1.63;;;;;;;;;;5031037;28;20560;-75
2022/01/04 05:34:25;;;;;;;12.25;2.53;;;;;;;;;;5032121;28;20099;-75
2022/01/04 05:36:51;;;;;;;8.32;1.58;;;;;;;;;;5030312;28;20096;-75
2022/01/04 05:39:18;;;;;;;10.93;1.40;;;;;;;;;;5032038;28;20053;-75
2022/01/04 05:41:45;;;;;;;10.68;1.75;;;;;;;;;;5032094;28;20559;-75
2022/01/04 05:44:11;;;;;;;8.32;1.52;;;;;;;;;;5031979;28;20566;-75
2022/01/04 05:46:38;;;;;;;5.53;1.85;;;;;;;;;;5031919;28;20049;-76
2022/01/04 05:49:04;;;;;;;8.50;1.30;;;;;;;;;;5032176;28;20053;-75
2022/01/04 05:51:31;;;;;;;8.50;1.70;;;;;;;;;;5031937;28;20053;-75
2022/01/04 05:53:57;;;;;;;7.47;1.23;;;;;;;;;;5031846;28;20103;-75
2022/01/04 05:56:24;;;;;;;10.82;1.45;;;;;;;;;;5031853;28;20049;-76
2022/01/04 05:58:50;;;;;;;12.55;2.30;;;;;;;;;;5031830;28;20095;-75
2022/01/04 06:01:17;;;;;;;6.82;1.42;;;;;;;;;;5031781;28;20046;-76
2022/01/04 06:03:46;;;;;;;11.82;1.60;;;;;;;;;;5030835;28;20061;-76
2022/01/04 06:06:13;;;;;;;12.23;1.60;;;;;;;;;;5030546;28;20049;-75
2022/01/04 06:08:39;;;;;;;10.35;1.95;;;;;;;;;;5031646;28;20386;-75
2022/01/04 06:11:08;;;;;;;7.97;1.60;;;;;;;;;;5031719;28;20571;-75
2022/01/04 06:16:24;;;;;;;8.95;1.58;;;;;;;;;;5031682;28;20131;-75
2022/01/04 06:18:51;;;;;;;6.70;1.77;;;;;;;;;;5031611;28;20046;-75
2022/01/04 06:21:17;;;;;;;7.55;1.50;;;;;;;;;;5031581;28;20486;-75
2022/01/04 06:23:44;;;;;;;12.48;1.63;;;;;;;;;;5031474;28;20072;-75
2022/01/04 06:26:10;;;;;;;9.77;1.90;;;;;;;;;;5031770;28;20069;-76
2022/01/04 06:28:37;;;;;;;9.15;1.58;;;;;;;;;;5032081;28;20103;-76
2022/01/04 06:31:04;;;;;;;6.88;1.33;;;;;;;;;;5031517;28;20551;-76
2022/01/04 06:33:30;;;;;;;13.90;2.20;;;;;;;;;;5031220;28;20576;-76
2022/01/04 06:35:57;;;;;;;10.55;1.85;;;;;;;;;;5031665;28;20042;-76
2022/01/04 06:38:23;;;;;;;5.50;1.80;;;;;;;;;;5027678;28;20049;-76
2022/01/04 06:40:49;;;;;;;6.07;1.50;;;;;;;;;;5031523;28;20111;-76
2022/01/04 06:43:16;;;;;;;6.40;1.27;;;;;;;;;;5031391;28;20107;-76
2022/01/04 06:45:42;;;;;;;6.82;1.75;;;;;;;;;;5031432;28;20053;-76
2022/01/04 06:48:09;;;;;;;9.65;1.77;;;;;;;;;;5031921;28;20167;-76
2022/01/04 06:50:36;;;;;;;9.73;2.17;;;;;;;;;;5035621;28;20406;-76
2022/01/04 06:53:02;;;;;;;9.95;2.28;;;;;;;;;;5035188;28;20045;-75
2022/01/04 06:55:29;;;;;;;7.03;1.15;;;;;;;;;;5035378;28;20076;-74
2022/01/04 06:57:55;;;;;;;6.15;1.02;;;;;;;;;;5035433;28;20045;-75
2022/01/04 07:00:22;;;;;;;7.03;1.45;;;;;;;;;;5035062;28;20045;-76
2022/01/04 07:02:48;;;;;;;7.80;1.83;;;;;;;;;;5035325;28;20049;-76
2022/01/04 07:05:15;;;;;;;5.18;1.30;;;;;;;;;;5034167;28;20064;-76
2022/01/04 07:07:41;;;;;;;5.47;1.05;;;;;;;;;;5034990;28;20088;-76
2022/01/04 07:10:09;;;;;;;4.93;0.98;;;;;;;;;;5034944;28;20589;-76
2022/01/04 07:12:36;;;;;;;9.40;2.25;;;;;;;;;;5033779;28;20053;-76
2022/01/04 07:15:02;;;;;;;9.00;1.50;;;;;;;;;;5034940;28;20075;-76
2022/01/04 07:17:29;;;;;;;5.78;1.10;;;;;;;;;;5034839;28;20640;-76
2022/01/04 07:19:55;;;;;;;8.25;1.40;;;;;;;;;;5034688;28;20547;-76
2022/01/04 07:22:22;;;;;;;8.82;1.30;;;;;;;;;;5035052;28;20045;-76
2022/01/04 07:24:48;;;;;;;2.20;0.30;;;;;;;;;;5033762;28;20100;-76
2022/01/04 07:27:15;;;;;;;1.25;0.38;;;;;;;;;;5034846;28;20119;-76
2022/01/04 07:29:41;;;;;;;0.35;0.17;;;;;;;;;;5034554;28;20103;-76
2022/01/04 07:32:07;;;;;;;0.40;0.30;;;;;;;;;;5033553;28;20049;-76
2022/01/04 07:34:34;;;;;;;0.20;0.20;;;;;;;;;;5034713;28;20103;-76
2022/01/04 07:37:02;;;;;;;0.45;0.45;;;;;;;;;;5034418;28;20513;-76
2022/01/04 07:39:28;;;;;;;1.00;0.90;;;;;;;;;;5034348;28;20045;-76
2022/01/04 07:41:57;;;;;;;0.98;0.98;;;;;;;;;;5034379;28;20057;-76
2022/01/04 07:44:25;;;;;;;1.30;1.20;;;;;;;;;;5034456;28;20109;-76
2022/01/04 07:46:51;;;;;;;1.80;1.70;;;;;;;;;;5034521;28;20045;-76
2022/01/04 07:49:18;;;;;;;1.40;1.30;;;;;;;;;;5033216;28;20054;-76
2022/01/04 07:51:44;;;;;;;1.33;1.23;;;;;;;;;;5034301;28;20045;-76
2022/01/04 07:54:11;;;;;;;1.40;1.30;;;;;;;;;;5034109;28;20451;-76
2022/01/04 07:56:38;;;;;;;1.50;1.40;;;;;;;;;;5033135;28;20469;-76
2022/01/04 07:59:05;;;;;;;1.70;1.60;;;;;;;;;;5033935;28;20064;-78
2022/01/04 08:01:31;;;;;;;1.60;1.50;;;;;;;;;;5031875;28;20050;-75
2022/01/04 08:04:00;;;;;;;1.50;1.40;;;;;;;;;;5032994;28;20053;-75
2022/01/04 08:06:29;;;;;;;1.83;1.55;;;;;;;;;;5032446;28;20053;-75
2022/01/04 08:08:55;;;;;;;2.35;1.73;;;;;;;;;;5034128;28;20095;-75
2022/01/04 08:11:22;;;;;;;1.48;1.33;;;;;;;;;;5033721;28;20107;-75
2022/01/04 08:13:48;;;;;;;1.50;1.40;;;;;;;;;;5033619;28;20045;-75
2022/01/04 08:16:15;;;;;;;1.23;1.13;;;;;;;;;;5033715;28;20099;-75
2022/01/04 08:18:42;;;;;;;1.30;1.20;;;;;;;;;;5030850;28;20136;-75
2022/01/04 08:21:29;;;;;;;1.42;1.33;;;;;;;;;;5021193;28;20135;-76
2022/01/04 08:23:55;;;;;;;1.75;1.20;;;;;;;;;;5033506;28;20128;-76
2022/01/04 08:26:21;;;;;;;1.27;1.17;;;;;;;;;;5032330;28;20103;-75
2022/01/04 08:28:48;;;;;;;1.50;0.93;;;;;;;;;;5032035;28;20045;-74
2022/01/04 08:31:14;;;;;;;1.50;1.40;;;;;;;;;;5033381;28;20096;-74
2022/01/04 08:33:50;;;;;;;0.75;0.75;;;;;;;;;;5033327;28;20049;-74
2022/01/04 08:36:17;;;;;;;2.10;1.20;;;;;;;;;;5032080;28;20041;-72
2022/01/04 08:38:44;;;;;;;1.27;0.80;;;;;;;;;;5031891;28;20045;-72
2022/01/04 08:41:11;;;;;;;1.30;1.10;;;;;;;;;;5031805;28;20107;-73
2022/01/04 08:43:37;;;;;;;0.50;0.50;;;;;;;;;;5033144;28;20045;-73
2022/01/04 08:46:04;;;;;;;0.40;0.40;;;;;;;;;;5032836;28;20482;-71
2022/01/04 08:48:30;;;;;;;0.82;0.50;;;;;;;;;;5033164;28;20408;-74
2022/01/04 08:50:57;;;;;;;0.47;0.47;;;;;;;;;;5032723;28;20061;-72
2022/01/04 08:53:26;;;;;;;0.70;0.70;;;;;;;;;;5033099;28;20045;-73
2022/01/04 08:55:52;;;;;;;0.50;0.45;;;;;;;;;;5032836;28;20099;-73
2022/01/04 08:58:19;;;;;;;0.70;0.70;;;;;;;;;;5032953;28;20501;-72
2022/01/04 09:00:46;;;;;;;1.23;0.60;;;;;;;;;;5030968;28;20072;-71
2022/01/04 09:03:16;;;;;;;0.82;0.80;;;;;;;;;;5032201;28;20049;-72
2022/01/04 09:05:43;;;;;;;0.95;0.90;;;;;;;;;;5019212;28;20160;-73
2022/01/04 09:08:10;;;;;;;0.70;0.70;;;;;;;;;;5032799;28;20061;-75
2022/01/04 09:10:36;;;;;;;1.08;1.00;;;;;;;;;;5031373;28;20049;-74
2022/01/04 09:13:14;;;;;;;1.08;0.95;;;;;;;;;;5032148;28;20057;-73
2022/01/04 09:18:43;;;;;;;0.85;0.77;;;;;;;;;;5032203;28;20111;-73
2022/01/04 09:18:43;;;;;;;1.65;0.80;;;;;;;;;;5032414;28;20095;-72
2022/01/04 09:21:24;;;;;;;0.80;0.80;;;;;;;;;;5032312;28;20132;-73
2022/01/04 09:23:51;;;;;;;1.08;0.90;;;;;;;;;;5031274;28;20494;-73
2022/01/04 09:26:18;;;;;;;0.75;0.60;;;;;;;;;;5031138;28;20049;-73
2022/01/04 09:28:44;;;;;;;1.80;0.65;;;;;;;;;;5047633;28;20060;-73
2022/01/04 09:31:11;;;;;;;0.77;0.50;;;;;;;;;;5031075;28;20041;-73
2022/01/04 09:33:39;;;;;;;3.40;0.80;;;;;;;;;;5032411;28;20061;-72
2022/01/04 09:36:23;;;;;;;0.20;0.20;;;;;;;;;;5032247;28;20481;-73
2022/01/04 09:38:51;;;;;;;0.20;0.20;;;;;;;;;;5031127;28;20046;-72
2022/01/04 09:41:18;;;;;;;0.25;0.20;;;;;;;;;;5032092;28;20049;-72
2022/01/04 09:43:44;;;;;;;0.95;0.30;;;;;;;;;;5032318;28;20049;-73
2022/01/04 09:46:11;;;;;;;2.63;0.35;;;;;;;;;;5032036;28;20041;-73
2022/01/04 09:48:38;;;;;;;0.50;0.20;;;;;;;;;;5031301;28;20456;-73
2022/01/04 09:51:05;;;;;;;0.30;0.20;;;;;;;;;;5031709;28;20095;-73
2022/01/04 09:53:34;;;;;;;0.17;0.17;;;;;;;;;;5031577;28;20046;-74
2022/01/04 09:56:00;;;;;;;0.85;0.15;;;;;;;;;;5031744;28;20045;-73
2022/01/04 09:58:30;;;;;;;0.30;0.10;;;;;;;;;;5031472;28;20842;-73
2022/01/04 10:00:56;;;;;;;0.32;0.10;;;;;;;;;;5030393;28;20421;-72
2022/01/04 10:03:28;;;;;;;0.68;0.20;;;;;;;;;;5011252;28;20038;-73
2022/01/04 10:06:07;;;;;;;0.13;0.10;;;;;;;;;;5031931;28;20516;-72
2022/01/04 10:08:47;;;;;;;1.02;0.47;;;;;;;;;;5030729;28;20045;-72
2022/01/04 10:11:14;;;;;;;0.15;0.10;;;;;;;;;;5032062;28;20822;-71
2022/01/04 10:13:40;;;;;;;0.30;0.20;;;;;;;;;;5031776;28;20394;-72
2022/01/04 10:16:14;;;;;;;0.35;0.10;;;;;;;;;;5030844;28;20053;-71
2022/01/04 10:18:45;;;;;;;1.80;0.20;;;;;;;;;;5031148;28;20489;-72
2022/01/04 10:21:13;;;;;;;0.55;0.13;;;;;;;;;;5031373;28;20091;-71
2022/01/04 10:23:47;;;;;;;0.70;0.17;;;;;;;;;;5029631;28;20037;-72
2022/01/04 10:26:15;;;;;;;0.20;0.20;;;;;;;;;;5031355;28;20057;-72
2022/01/04 10:28:43;;;;;;;0.30;0.20;;;;;;;;;;5031565;28;20131;-72
2022/01/04 10:31:16;;;;;;;0.20;0.20;;;;;;;;;;5030160;28;20286;-72
2022/01/04 10:33:43;;;;;;;0.95;0.35;;;;;;;;;;5031468;28;20661;-72
2022/01/04 10:36:13;;;;;;;1.08;0.52;;;;;;;;;;5029321;28;20099;-72
2022/01/04 10:38:40;;;;;;;1.08;0.45;;;;;;;;;;5031629;28;20456;-72
2022/01/04 10:41:17;;;;;;;1.38;0.40;;;;;;;;;;5030941;28;20076;-71
2022/01/04 10:43:54;;;;;;;0.43;0.30;;;;;;;;;;5030147;28;20108;-72
2022/01/04 10:46:44;;;;;;;0.63;0.60;;;;;;;;;;5028818;28;20049;-72
2022/01/04 10:49:19;;;;;;;0.60;0.40;;;;;;;;;;5028751;28;20060;-73
2022/01/04 10:51:47;;;;;;;0.95;0.52;;;;;;;;;;5031112;28;20444;-72
2022/01/04 10:54:18;;;;;;;0.50;0.50;;;;;;;;;;5029807;28;20057;-73
2022/01/04 10:56:45;;;;;;;1.55;0.60;;;;;;;;;;5046146;28;20428;-72
2022/01/04 10:59:12;;;;;;;0.40;0.40;;;;;;;;;;5030815;28;20057;-72
2022/01/04 11:01:42;;;;;;;3.15;1.52;;;;;;;;;;5030557;28;20448;-71
2022/01/04 11:04:13;;;;;;;5.78;3.35;;;;;;;;;;5030910;28;20053;-73
2022/01/04 11:06:41;;;;;;;7.55;3.78;;;;;;;;;;5029542;28;20464;-72
2022/01/04 11:09:08;;;;;;;10.37;4.60;;;;;;;;;;5028822;28;20135;-73
2022/01/04 11:11:35;;;;;;;5.97;3.72;;;;;;;;;;5030542;28;20324;-73
2022/01/04 11:14:02;;;;;;;8.07;5.30;;;;;;;;;;5031111;28;20414;-73
2022/01/04 11:16:29;;;;;;;3.13;2.10;;;;;;;;;;5031074;28;20050;-72
2022/01/04 11:18:56;;;;;;;1.97;1.20;;;;;;;;;;5029762;28;20041;-73
2022/01/04 11:21:25;;;;;;;1.20;1.10;;;;;;;;;;5031285;28;20279;-72
2022/01/04 11:23:57;;;;;;;0.90;0.90;;;;;;;;;;5023924;28;20046;-72
2022/01/04 11:26:24;;;;;;;1.75;1.33;;;;;;;;;;5030128;28;20053;-72
2022/01/04 11:28:52;;;;;;;2.33;2.10;;;;;;;;;;5030734;28;20072;-72
2022/01/04 11:31:37;;;;;;;3.15;2.28;;;;;;;;;;5030536;28;20099;-71
2022/01/04 11:34:04;;;;;;;2.85;2.30;;;;;;;;;;5030440;28;20055;-73
2022/01/04 11:36:34;;;;;;;1.83;1.53;;;;;;;;;;5033252;28;20068;-75
2022/01/04 11:39:00;;;;;;;0.90;0.80;;;;;;;;;;5032705;28;20084;-77
2022/01/04 11:41:32;;;;;;;2.13;0.98;;;;;;;;;;5034079;28;20049;-73
2022/01/04 11:44:19;;;;;;;0.90;0.60;;;;;;;;;;5033985;28;20049;-77
2022/01/04 11:47:00;;;;;;;2.27;0.90;;;;;;;;;;5033476;28;20449;-79
2022/01/04 11:49:26;;;;;;;4.32;0.70;;;;;;;;;;5033315;28;20065;-73
2022/01/04 11:51:53;;;;;;;1.65;0.60;;;;;;;;;;5032780;28;20049;-81
2022/01/04 11:54:26;;;;;;;3.40;1.15;;;;;;;;;;5034137;28;20057;-83
2022/01/04 11:56:52;;;;;;;1.80;0.47;;;;;;;;;;5033042;28;20468;-77
2022/01/04 11:59:25;;;;;;;3.20;1.00;;;;;;;;;;5032959;28;20111;-77
2022/01/04 12:01:55;;;;;;;3.67;0.85;;;;;;;;;;5033776;28;20061;-82
2022/01/04 12:04:53;;;;;;;2.72;0.60;;;;;;;;;;5034055;28;20059;-82
2022/01/04 12:07:52;;;;;;;5.32;0.70;;;;;;;;;;5023440;28;20045;-83
2022/01/04 12:10:18;;;;;;;2.95;0.80;;;;;;;;;;5025509;28;20056;-75
2022/01/04 12:12:54;;;;;;;2.38;0.77;;;;;;;;;;5032458;28;20501;-82
2022/01/04 12:15:33;;;;;;;5.28;0.82;;;;;;;;;;5032568;28;20054;-76
2022/01/04 12:18:03;;;;;;;4.00;0.80;;;;;;;;;;5032637;28;20057;-75
2022/01/04 12:20:41;;;;;;;3.63;0.93;;;;;;;;;;5033822;28;20045;-75
2022/01/04 12:26:02;;;;;;;4.85;1.23;;;;;;;;;;5033855;28;20045;-82
2022/01/04 12:28:36;;;;;;;2.65;0.90;;;;;;;;;;5032480;28;20059;-79
2022/01/04 12:31:19;;;;;;;3.22;0.82;;;;;;;;;;5033414;28;20057;-80
2022/01/04 12:33:47;;;;;;;3.50;0.95;;;;;;;;;;5032170;28;20511;-79
2022/01/04 12:36:22;;;;;;;3.55;0.80;;;;;;;;;;5033524;28;20053;-81
2022/01/04 12:38:50;;;;;;;4.40;1.05;;;;;;;;;;5033186;28;20095;-82
2022/01/04 12:41:19;;;;;;;2.47;1.02;;;;;;;;;;5032273;28;20045;-80
2022/01/04 12:43:47;;;;;;;2.73;0.77;;;;;;;;;;5033441;28;20053;-80
2022/01/04 12:46:14;;;;;;;3.63;0.95;;;;;;;;;;5031804;28;20045;-80
2022/01/04 12:48:48;;;;;;;3.63;0.60;;;;;;;;;;5032553;28;20053;-73
2022/01/04 12:51:34;;;;;;;4.70;0.93;;;;;;;;;;5030543;28;20057;-82
2022/01/04 12:54:02;;;;;;;3.40;1.00;;;;;;;;;;5032952;28;20045;-79
2022/01/04 12:56:29;;;;;;;5.50;1.48;;;;;;;;;;5032395;28;20038;-82
2022/01/04 12:58:56;;;;;;;2.43;0.93;;;;;;;;;;5030810;28;20045;-80
2022/01/04 13:01:27;;;;;;;4.03;1.02;;;;;;;;;;5032308;28;20103;-80
2022/01/04 13:03:54;;;;;;;2.20;0.88;;;;;;;;;;5032303;28;20052;-80
2022/01/04 13:06:24;;;;;;;3.67;1.00;;;;;;;;;;5031895;28;20053;-81
2022/01/04 13:08:54;;;;;;;2.75;1.00;;;;;;;;;;5032219;28;20049;-80
2022/01/04 13:11:21;;;;;;;4.63;1.10;;;;;;;;;;5031723;28;20045;-82
2022/01/04 13:13:53;;;;;;;3.23;0.67;;;;;;;;;;5032357;28;20046;-84
2022/01/04 13:16:29;;;;;;;3.22;0.80;;;;;;;;;;5032219;28;20137;-82
2022/01/04 13:19:15;;;;;;;3.20;1.27;;;;;;;;;;5029493;28;20133;-80
2022/01/04 13:21:54;;;;;;;4.45;1.50;;;;;;;;;;5031809;28;20549;-81
2022/01/04 13:24:30;;;;;;;3.65;1.80;;;;;;;;;;5031102;28;20045;-83
2022/01/04 13:27:16;;;;;;;4.90;2.38;;;;;;;;;;5031983;28;20045;-80
2022/01/04 13:29:50;;;;;;;4.45;2.42;;;;;;;;;;5032313;28;20057;-82
2022/01/04 13:32:16;;;;;;;6.30;2.83;;;;;;;;;;5032206;28;20053;-84
2022/01/04 13:34:44;;;;;;;5.93;2.80;;;;;;;;;;5032469;28;20072;-86
2022/01/04 13:37:13;;;;;;;4.45;1.38;;;;;;;;;;5032442;28;20049;-83
2022/01/04 13:39:44;;;;;;;2.63;1.75;;;;;;;;;;5032184;28;20048;-81
2022/01/04 13:42:30;;;;;;;3.45;1.08;;;;;;;;;;5032461;28;20049;-82
2022/01/04 13:44:57;;;;;;;7.63;3.23;;;;;;;;;;5031604;28;20045;-78
2022/01/04 13:47:44;;;;;;;8.20;3.83;;;;;;;;;;5030666;28;20084;-81
2022/01/04 13:50:11;;;;;;;12.52;8.70;;;;;;;;;;5031491;28;20057;-80
2022/01/04 13:52:38;;;;;;;14.05;8.90;;;;;;;;;;5031295;28;20050;-82
2022/01/04 13:55:05;;;;;;;9.68;7.45;;;;;;;;;;5031228;28;20539;-82
2022/01/04 13:57:34;;;;;;;5.15;2.08;;;;;;;;;;5030445;28;20037;-82
2022/01/04 14:00:19;;;;;;;3.72;1.42;;;;;;;;;;5031278;28;20052;-79
2022/01/04 14:02:46;;;;;;;4.18;1.40;;;;;;;;;;5029848;28;20489;-80
2022/01/04 14:05:14;;;;;;;3.47;1.02;;;;;;;;;;5031057;28;20470;-81
2022/01/04 14:07:41;;;;;;;6.95;1.45;;;;;;;;;;5031305;28;20049;-79
2022/01/04 14:10:11;;;;;;;4.93;1.30;;;;;;;;;;5031467;28;20478;-79
2022/01/04 14:12:41;;;;;;;3.58;0.90;;;;;;;;;;5029876;28;20049;-80
2022/01/04 14:15:10;;;;;;;3.85;1.00;;;;;;;;;;5031045;28;20049;-81
2022/01/04 14:17:39;;;;;;;3.03;1.10;;;;;;;;;;5030225;28;20045;-83
2022/01/04 14:20:09;;;;;;;5.13;1.90;;;;;;;;;;5031909;28;20049;-82
2022/01/04 14:22:38;;;;;;;5.43;1.65;;;;;;;;;;5030313;28;20045;-80
2022/01/04 14:25:14;;;;;;;3.40;0.98;;;;;;;;;;5031728;28;20053;-79
2022/01/04 14:27:44;;;;;;;3.53;1.23;;;;;;;;;;5030551;28;20049;-83
2022/01/04 14:30:13;;;;;;;4.80;1.35;;;;;;;;;;5031776;28;20316;-87
2022/01/04 14:32:40;;;;;;;;;;;;;;;;;;5032359;28;20054;-84
2022/01/04 14:35:19;;;;;;;4.10;1.38;;;;;;;;;;5031389;28;20426;-81
2022/01/04 14:37:51;;;;;;;7.40;1.90;;;;;;;;;;5030886;28;20045;-75
2022/01/04 14:40:19;;;;;;;6.03;2.00;;;;;;;;;;5031051;28;20053;-76
2022/01/04 14:42:45;;;;;;;7.35;2.50;;;;;;;;;;5031177;28;20135;-76
2022/01/04 14:45:12;;;;;;;8.27;2.17;;;;;;;;;;5030757;28;20497;-75
2022/01/04 14:47:39;;;;;;;7.43;2.63;;;;;;;;;;5029843;28;20405;-74
2022/01/04 14:50:06;;;;;;;5.22;1.80;;;;;;;;;;5027835;28;20045;-74
2022/01/04 14:52:33;;;;;;;5.95;1.73;;;;;;;;;;5019489;28;20053;-73
2022/01/04 14:54:59;;;;;;;7.10;1.80;;;;;;;;;;5021305;28;20042;-77